Gove Airport
YPGV : now visible

Airfield :











YOU CAN JOIN US ON...

 
LOGIN :

Register | Disclaimer

   EN    FR    IT 

 









Legend :    VFR   Marginal VFR   IFR   Intensive IFR   Very Intensive IFR
Visi :
Ceiling :
>= 8 km
>= 3000ft
5 to 8 km
1000 to 3000 ft
1500m to 5 km
500 to 1000 ft
800 to 1500m
200 to 500 ft
< 800m
< 200 ft
Symbols :   Thunderstorms  Fog  Heavy snow  Heavy precipitations  Wind > 20 kt






- Airport Elevation : 192 ft
- IATA code : GOV


YPGV - Gove

CURRENT METAR :
  • 270030Z 14012KT 9999 FEW035 27/19 Q1017

EXPIRED METARs :
  • 270000Z 13012KT 9999 FEW035 27/19 Q1017
  • 262330Z 12012KT 9999 FEW035 26/19 Q1017
  • 262300Z AUTO 13007KT 9999 // NCD 25/19 Q1017
  • 262230Z AUTO 13005KT 9999 // NCD 24/20 Q1017 RF00.0/000.0
  • 262200Z AUTO 12005KT 9999 // NCD 22/19 Q1017

TAF TAF YPGV
Valid from the 26 at 20:00 until the 27 at 08:00 UTC


261837Z 2620/2708 14010KT 9999 SCT025
YBBB FIR / Oceania



MET'MAP, your aeronautical weather chart ! - Copyright ORBIFLY December 2007 - Disclaimer

ORBIFLY MET'MAP TEAM :

Programming & Development : Alexandra Zaïnal
Concept & original design : Baudouin d'Aumeries
Assistance for programming : Marc-Olivier Méhu
Technical & hardware support : Manuel Goepfert

Contact : metmap@orbifly.com




SOURCES & CREDITS :

   NOAA       Earth
Advisory